logo
Search for airport 
image banner adimage banner adimage banner ad
image banner ad

CDT3 - Arichat (St.Anne Ladies Auxiliary Hospital)

Located in , Canada

ICAO - CDT3, IATA -

Data provided by Airmate  

General information

Coordinates: N45°30'41" W61°2'1"
Elevation is 70 feet MSL.
Magnetic variation is -18.3578° East
View others Airports in Nova Scotia

Operational data

Special qualification required
Current time UTC:
Current local time:
Weather at : CYPD - Port Hawkesbury ( 31 km )
METAR: CYPD 230400Z AUTO 35003KT 9SM CLR M02/M07 A3007 RMK SLP188
View NOTAMs / SUP AIP / TFR affecting this airport [VIEW]
Communications frequencies: [VIEW]

Runways:

Airport contact information

Address: Canada

Satellite view of CDT3